Time;durP1;ratioP1;P1;durP2;ratioP2;P2;SDS_P1;SDS_P2;PMS_P1;PMS_P2;Temp;Humidity;BMP_temperature;BMP_pressure;BME280_temperature;BME280_humidity;BME280_pressure;Samples;Min_cycle;Max_cycle;Signal;HPM_P1;HPM_P2
2022/03/06 00:01:51;;;;;;;;;;;0.60;99.90;;;;;;5093694;28;20269;-75
2022/03/06 00:04:17;;;;;;;;;;;0.70;99.90;;;;;;5093383;28;19908;-75
2022/03/06 00:06:42;;;;;;;;;;;0.80;99.90;;;;;;5092736;28;20365;-75
2022/03/06 00:09:08;;;;;;;;;;;0.80;99.90;;;;;;5093382;28;19908;-75
2022/03/06 00:11:33;;;;;;;;;;;0.90;99.90;;;;;;5092930;28;19915;-75
2022/03/06 00:13:59;;;;;;;;;;;0.90;99.90;;;;;;5093460;28;19908;-75
2022/03/06 00:16:25;;;;;;;;;;;0.90;99.90;;;;;;5092871;28;19912;-74
2022/03/06 00:18:50;;;;;;;;;;;1.00;99.90;;;;;;5092877;28;19955;-75
2022/03/06 00:21:16;;;;;;;;;;;0.90;99.90;;;;;;5093279;28;20429;-74
2022/03/06 00:23:41;;;;;;;;;;;0.90;99.90;;;;;;5092686;28;20066;-75
2022/03/06 00:26:07;;;;;;;;;;;0.80;99.90;;;;;;5093183;28;20330;-75
2022/03/06 00:28:33;;;;;;;;;;;0.70;99.90;;;;;;5092623;28;19908;-75
2022/03/06 00:30:59;;;;;;;;;;;0.70;99.90;;;;;;5092987;28;20410;-74
2022/03/06 00:33:24;;;;;;;;;;;0.60;99.90;;;;;;5092623;28;19912;-75
2022/03/06 00:35:50;;;;;;;;;;;0.70;99.90;;;;;;5093099;28;20361;-74
2022/03/06 00:38:15;;;;;;;;;;;0.70;99.90;;;;;;5093186;28;19915;-75
2022/03/06 00:40:43;;;;;;;;;;;0.80;99.90;;;;;;5092582;28;20006;-75
2022/03/06 00:43:09;;;;;;;;;;;0.80;99.90;;;;;;5093116;28;19931;-75
2022/03/06 00:45:34;;;;;;;;;;;0.80;99.90;;;;;;5092322;28;19920;-75
2022/03/06 00:48:00;;;;;;;;;;;0.80;99.90;;;;;;5091690;28;19908;-75
2022/03/06 00:50:26;;;;;;;;;;;0.80;99.90;;;;;;5092334;28;19908;-75
2022/03/06 00:52:52;;;;;;;;;;;0.80;99.90;;;;;;5092879;28;19908;-75
2022/03/06 00:55:18;;;;;;;;;;;0.80;99.90;;;;;;5093037;28;19915;-75
2022/03/06 00:57:44;;;;;;;;;;;0.80;99.90;;;;;;5091903;28;20179;-75
2022/03/06 01:00:10;;;;;;;;;;;0.80;99.90;;;;;;5092657;28;19908;-75
2022/03/06 01:02:35;;;;;;;;;;;0.80;99.90;;;;;;5092273;28;19933;-76
2022/03/06 01:05:01;;;;;;;;;;;0.80;99.90;;;;;;5092873;28;20010;-75
2022/03/06 01:07:27;;;;;;;;;;;0.80;99.90;;;;;;5092295;28;19909;-76
2022/03/06 01:09:52;;;;;;;;;;;0.80;99.90;;;;;;5091479;28;19908;-76
2022/03/06 01:12:18;;;;;;;;;;;0.80;99.90;;;;;;5092760;28;19909;-76
2022/03/06 01:14:43;;;;;;;;;;;0.80;99.90;;;;;;5092239;28;20010;-75
2022/03/06 01:17:09;;;;;;;;;;;0.80;99.90;;;;;;5092739;28;19908;-75
2022/03/06 01:19:34;;;;;;;;;;;0.80;99.90;;;;;;5092027;28;19919;-76
2022/03/06 01:22:00;;;;;;;;;;;0.70;99.90;;;;;;5092465;28;20309;-76
2022/03/06 01:24:26;;;;;;;;;;;0.60;99.90;;;;;;5092536;28;19908;-76
2022/03/06 01:26:51;;;;;;;;;;;0.60;99.90;;;;;;5092213;28;19923;-76
2022/03/06 01:29:18;;;;;;;;;;;0.50;99.90;;;;;;5092372;28;20281;-76
2022/03/06 01:31:44;;;;;;;;;;;0.50;99.90;;;;;;5094584;28;19908;-76
2022/03/06 01:34:10;;;;;;;;;;;0.40;99.90;;;;;;5095139;28;19908;-75
2022/03/06 01:36:35;;;;;;;;;;;0.40;99.90;;;;;;5095871;28;20276;-75
2022/03/06 01:39:01;;;;;;;;;;;0.50;99.90;;;;;;5096327;28;20108;-75
2022/03/06 01:41:27;;;;;;;;;;;0.50;99.90;;;;;;5096187;28;19909;-75
2022/03/06 01:43:52;;;;;;;;;;;0.40;99.90;;;;;;5095975;28;20336;-75
2022/03/06 01:46:18;;;;;;;;;;;0.40;99.90;;;;;;5096092;28;20335;-76
2022/03/06 01:48:44;;;;;;;;;;;0.30;99.90;;;;;;5095606;28;20365;-76
2022/03/06 01:51:09;;;;;;;;;;;0.30;99.90;;;;;;5096047;28;19908;-76
2022/03/06 01:53:35;;;;;;;;;;;0.30;99.90;;;;;;5095223;28;19974;-75
2022/03/06 01:56:00;;;;;;;;;;;0.40;99.90;;;;;;5096244;28;19934;-75
2022/03/06 01:58:26;;;;;;;;;;;0.30;99.90;;;;;;5095627;28;19927;-76
2022/03/06 02:00:52;;;;;;;;;;;0.30;99.90;;;;;;5095396;28;19912;-75
2022/03/06 02:03:18;;;;;;;;;;;0.30;99.90;;;;;;5095759;28;19908;-75
2022/03/06 02:05:46;;;;;;;;;;;0.30;99.90;;;;;;5094410;28;20483;-76
2022/03/06 02:08:11;;;;;;;;;;;0.30;99.90;;;;;;5095843;28;20361;-75
2022/03/06 02:10:37;;;;;;;;;;;0.30;99.90;;;;;;5095112;28;19930;-75
2022/03/06 02:13:03;;;;;;;;;;;0.20;99.90;;;;;;5095564;28;19958;-76
2022/03/06 02:15:29;;;;;;;;;;;0.30;99.90;;;;;;5095624;28;20369;-75
2022/03/06 02:17:55;;;;;;;;;;;0.30;99.90;;;;;;5095327;28;19912;-75
2022/03/06 02:20:22;;;;;;;;;;;0.30;99.90;;;;;;5095427;28;20006;-75
2022/03/06 02:22:49;;;;;;;;;;;0.30;99.90;;;;;;5094974;28;19961;-75
2022/03/06 02:25:16;;;;;;;;;;;0.30;99.90;;;;;;5095504;28;19920;-75
2022/03/06 02:27:42;;;;;;;;;;;0.30;99.90;;;;;;5094858;28;19946;-75
2022/03/06 02:30:09;;;;;;;;;;;0.30;99.90;;;;;;5095753;28;19947;-75
2022/03/06 02:32:35;;;;;;;;;;;0.20;99.90;;;;;;5093369;28;19920;-76
2022/03/06 02:35:00;;;;;;;;;;;0.20;99.90;;;;;;5095342;28;19962;-76
2022/03/06 02:37:26;;;;;;;;;;;0.10;99.90;;;;;;5095321;28;19908;-76
2022/03/06 02:39:51;;;;;;;;;;;0.10;99.90;;;;;;5094562;28;20102;-75
2022/03/06 02:42:27;;;;;;;;;;;0.00;99.90;;;;;;5094937;28;19915;-76
2022/03/06 02:44:53;;;;;;;;;;;-0.10;99.90;;;;;;5094644;28;19915;-76
2022/03/06 02:47:19;;;;;;;;;;;-0.10;99.90;;;;;;5095107;28;19908;-76
2022/03/06 02:49:44;;;;;;;;;;;-0.10;99.90;;;;;;5094265;28;19958;-75
2022/03/06 02:52:10;;;;;;;;;;;-0.10;99.90;;;;;;5095138;28;19910;-76
2022/03/06 02:54:36;;;;;;;;;;;-0.10;99.90;;;;;;5094740;28;19915;-75
2022/03/06 02:57:03;;;;;;;;;;;-0.10;99.90;;;;;;5094986;28;19926;-75
2022/03/06 02:59:28;;;;;;;;;;;-0.10;99.90;;;;;;5095236;28;19916;-76
2022/03/06 03:01:54;;;;;;;;;;;-0.20;99.90;;;;;;5094234;28;20049;-76
2022/03/06 03:04:21;;;;;;;;;;;-0.20;99.90;;;;;;5094710;28;19909;-76
2022/03/06 03:06:50;;;;;;;;;;;-0.20;99.90;;;;;;5094162;28;20365;-76
2022/03/06 03:09:17;;;;;;;;;;;-0.20;99.90;;;;;;5094487;28;20439;-76
2022/03/06 03:11:42;;;;;;;;;;;-0.20;99.90;;;;;;5094220;28;19908;-76
2022/03/06 03:14:08;;;;;;;;;;;-0.20;99.90;;;;;;5094763;28;19908;-76
2022/03/06 03:16:33;;;;;;;;;;;-0.30;99.90;;;;;;5094457;28;19961;-76
2022/03/06 03:18:59;;;;;;;;;;;-0.20;99.90;;;;;;5093988;28;20368;-76
2022/03/06 03:21:25;;;;;;;;;;;-0.30;99.90;;;;;;5094266;28;20284;-76
2022/03/06 03:23:50;;;;;;;;;;;-0.40;99.90;;;;;;5093813;28;20004;-76
2022/03/06 03:26:16;;;;;;;;;;;-0.40;99.90;;;;;;5094277;28;20272;-76
2022/03/06 03:28:41;;;;;;;;;;;-0.40;99.90;;;;;;5093900;28;19908;-76
2022/03/06 03:31:07;;;;;;;;;;;-0.30;99.90;;;;;;5092999;28;19908;-76
2022/03/06 03:33:32;;;;;;;;;;;-0.30;99.90;;;;;;5092898;28;19977;-76
2022/03/06 03:35:58;;;;;;;;;;;-0.30;99.90;;;;;;5092379;28;20018;-76
2022/03/06 03:38:23;;;;;;;;;;;-0.30;99.90;;;;;;5094130;28;19931;-76
2022/03/06 03:40:49;;;;;;;;;;;-0.30;99.90;;;;;;5093342;28;19908;-76
2022/03/06 03:43:14;;;;;;;;;;;-0.20;99.90;;;;;;5094254;28;20002;-75
2022/03/06 03:45:40;;;;;;;;;;;-0.20;99.90;;;;;;5093318;28;19916;-75
2022/03/06 03:48:06;;;;;;;;;;;-0.20;99.90;;;;;;5093900;28;19908;-76
2022/03/06 03:50:31;;;;;;;;;;;-0.30;99.90;;;;;;5094004;28;19916;-75
2022/03/06 03:52:57;;;;;;;;;;;-0.30;99.90;;;;;;5092492;28;19907;-76
2022/03/06 03:55:22;;;;;;;;;;;-0.30;99.90;;;;;;5093637;28;19915;-76
2022/03/06 03:57:48;;;;;;;;;;;-0.30;99.90;;;;;;5092746;28;20297;-75
2022/03/06 04:00:14;;;;;;;;;;;-0.40;99.90;;;;;;5095042;28;19909;-76
2022/03/06 04:02:39;;;;;;;;;;;-0.40;99.90;;;;;;5093432;28;19969;-75
2022/03/06 04:05:05;;;;;;;;;;;-0.30;99.90;;;;;;5093570;28;19912;-75
2022/03/06 04:07:31;;;;;;;;;;;-0.30;99.90;;;;;;5093660;28;19908;-76
2022/03/06 04:09:56;;;;;;;;;;;-0.30;99.90;;;;;;5093084;28;19908;-76
2022/03/06 04:12:22;;;;;;;;;;;-0.30;99.90;;;;;;5093314;28;20403;-76
2022/03/06 04:14:47;;;;;;;;;;;-0.30;99.90;;;;;;5092925;28;20374;-75
2022/03/06 04:17:13;;;;;;;;;;;-0.40;99.90;;;;;;5093494;28;19914;-76
2022/03/06 04:19:39;;;;;;;;;;;-0.50;99.90;;;;;;5093210;28;19908;-76
2022/03/06 04:22:04;;;;;;;;;;;-0.50;99.90;;;;;;5092919;28;19916;-75
2022/03/06 04:24:30;;;;;;;;;;;-0.60;99.90;;;;;;5093465;28;19908;-76
2022/03/06 04:26:55;;;;;;;;;;;-0.60;99.90;;;;;;5092623;28;19923;-75
2022/03/06 04:29:21;;;;;;;;;;;-0.50;99.90;;;;;;5093524;28;20238;-75
2022/03/06 04:31:47;;;;;;;;;;;-0.50;99.90;;;;;;5092722;28;19961;-75
2022/03/06 04:34:12;;;;;;;;;;;-0.50;99.90;;;;;;5093276;28;19914;-75
2022/03/06 04:36:38;;;;;;;;;;;-0.50;99.90;;;;;;5092895;28;19916;-75
2022/03/06 04:39:04;;;;;;;;;;;-0.50;99.90;;;;;;5092682;28;20340;-75
2022/03/06 04:41:29;;;;;;;;;;;-0.50;99.90;;;;;;5093211;28;19916;-75
2022/03/06 04:43:55;;;;;;;;;;;-0.50;99.90;;;;;;5092468;28;19915;-75
2022/03/06 04:46:21;;;;;;;;;;;-0.50;99.90;;;;;;5093060;28;20360;-75
2022/03/06 04:48:46;;;;;;;;;;;-0.50;99.90;;;;;;5092535;28;19961;-75
2022/03/06 04:51:12;;;;;;;;;;;-0.40;99.90;;;;;;5092847;28;19931;-75
2022/03/06 04:53:37;;;;;;;;;;;-0.50;99.90;;;;;;5092824;28;20245;-75
2022/03/06 04:56:03;;;;;;;;;;;-0.60;99.90;;;;;;5091025;28;19918;-75
2022/03/06 04:58:29;;;;;;;;;;;-0.60;99.90;;;;;;5093069;28;19959;-75
2022/03/06 05:00:55;;;;;;;;;;;-0.50;99.90;;;;;;5092348;28;19912;-74
2022/03/06 05:03:20;;;;;;;;;;;-0.50;99.90;;;;;;5092613;28;19909;-74
2022/03/06 05:05:46;;;;;;;;;;;-0.40;99.90;;;;;;5095016;28;20341;-74
2022/03/06 05:08:12;;;;;;;;;;;-0.40;99.90;;;;;;5097020;28;20365;-74
2022/03/06 05:10:37;;;;;;;;;;;-0.50;99.90;;;;;;5097013;28;19912;-74
2022/03/06 05:13:03;;;;;;;;;;;-0.40;99.90;;;;;;5096268;28;19904;-74
2022/03/06 05:15:29;;;;;;;;;;;-0.40;99.90;;;;;;5098600;28;20315;-74
2022/03/06 05:17:54;;;;;;;;;;;-0.40;99.90;;;;;;5098145;28;19918;-74
2022/03/06 05:20:20;;;;;;;;;;;-0.40;99.90;;;;;;5096854;28;19916;-74
2022/03/06 05:22:46;;;;;;;;;;;-0.40;99.90;;;;;;5094836;28;19908;-74
2022/03/06 05:25:12;;;;;;;;;;;-0.50;99.90;;;;;;5096736;28;19908;-75
2022/03/06 05:27:38;;;;;;;;;;;-0.50;99.90;;;;;;5096619;28;19909;-75
2022/03/06 05:30:07;;;;;;;;;;;-0.60;99.90;;;;;;5095806;28;20023;-75
2022/03/06 05:32:32;;;;;;;;;;;-0.60;99.90;;;;;;5096569;28;19999;-75
2022/03/06 05:34:58;;;;;;;;;;;-0.70;99.90;;;;;;5096015;28;19962;-75
2022/03/06 05:37:23;;;;;;;;;;;-0.60;99.90;;;;;;5096537;28;20392;-75
2022/03/06 05:39:49;;;;;;;;;;;-0.60;99.90;;;;;;5095930;28;19908;-75
2022/03/06 05:42:15;;;;;;;;;;;-0.50;99.90;;;;;;5096739;28;19999;-75
2022/03/06 05:44:41;;;;;;;;;;;-0.60;99.90;;;;;;5096208;28;19912;-76
2022/03/06 05:47:06;;;;;;;;;;;-0.60;99.90;;;;;;5095492;28;19912;-76
2022/03/06 05:49:32;;;;;;;;;;;-0.60;99.90;;;;;;5096157;28;19915;-75
2022/03/06 05:51:58;;;;;;;;;;;-0.60;99.90;;;;;;5095333;28;19914;-75
2022/03/06 05:54:23;;;;;;;;;;;-0.70;99.90;;;;;;5096165;28;19915;-75
2022/03/06 05:56:49;;;;;;;;;;;-0.70;99.90;;;;;;5095169;28;19959;-75
2022/03/06 05:59:14;;;;;;;;;;;-0.70;99.90;;;;;;5096138;28;19912;-75
2022/03/06 06:01:40;;;;;;;;;;;-0.70;99.90;;;;;;5096300;28;19908;-76
2022/03/06 06:04:06;;;;;;;;;;;-0.60;99.90;;;;;;5095209;28;19908;-76
2022/03/06 06:06:31;;;;;;;;;;;-0.70;99.90;;;;;;5094348;28;19929;-76
2022/03/06 06:08:57;;;;;;;;;;;-0.70;99.90;;;;;;5095621;28;19908;-75
2022/03/06 06:11:22;;;;;;;;;;;-0.80;99.90;;;;;;5095743;28;19995;-75
2022/03/06 06:13:48;;;;;;;;;;;-0.80;99.90;;;;;;5095212;28;19908;-75
2022/03/06 06:16:14;;;;;;;;;;;-0.90;99.90;;;;;;5094622;28;19999;-75
2022/03/06 06:18:40;;;;;;;;;;;-0.90;99.90;;;;;;5095582;28;20403;-76
2022/03/06 06:21:06;;;;;;;;;;;-0.90;99.90;;;;;;5094841;28;19912;-76
2022/03/06 06:23:32;;;;;;;;;;;-1.00;99.90;;;;;;5095283;28;19994;-76
2022/03/06 06:25:58;;;;;;;;;;;-0.90;99.90;;;;;;5094638;28;19920;-76
2022/03/06 06:28:23;;;;;;;;;;;-0.90;99.90;;;;;;5095451;28;19947;-76
2022/03/06 06:30:49;;;;;;;;;;;-0.80;99.90;;;;;;5095666;28;19908;-76
2022/03/06 06:33:14;;;;;;;;;;;-0.80;99.90;;;;;;5095845;28;19920;-76
2022/03/06 06:35:40;;;;;;;;;;;-0.70;99.90;;;;;;5095097;28;20422;-75
2022/03/06 06:38:06;;;;;;;;;;;-0.70;99.90;;;;;;5094677;28;19908;-76
2022/03/06 06:40:31;;;;;;;;;;;-0.70;99.90;;;;;;5095136;28;20000;-76
2022/03/06 06:42:57;;;;;;;;;;;-0.60;99.90;;;;;;5094579;28;19908;-76
2022/03/06 06:45:23;;;;;;;;;;;-0.60;99.90;;;;;;5094432;28;19917;-76
2022/03/06 06:47:48;;;;;;;;;;;-0.70;99.90;;;;;;5094556;28;19947;-76
2022/03/06 06:50:14;;;;;;;;;;;-0.70;99.90;;;;;;5094135;28;19920;-76
2022/03/06 06:52:40;;;;;;;;;;;-0.80;99.90;;;;;;5094643;28;19916;-76
2022/03/06 06:55:06;;;;;;;;;;;-0.90;99.90;;;;;;5094153;28;19908;-76
2022/03/06 06:57:32;;;;;;;;;;;-0.90;99.90;;;;;;5094505;28;20369;-76
2022/03/06 06:59:59;;;;;;;;;;;-0.90;99.90;;;;;;5094171;28;20330;-76
2022/03/06 07:02:24;;;;;;;;;;;-0.90;99.90;;;;;;5094651;28;19995;-76
2022/03/06 07:04:50;;;;;;;;;;;-0.90;99.90;;;;;;5094502;28;20037;-76
2022/03/06 07:07:15;;;;;;;;;;;-0.80;99.90;;;;;;5092645;28;19922;-76
2022/03/06 07:09:41;;;;;;;;;;;-0.80;99.90;;;;;;5093042;28;19908;-76
2022/03/06 07:12:07;;;;;;;;;;;-0.80;99.90;;;;;;5093566;28;19914;-76
2022/03/06 07:14:33;;;;;;;;;;;-0.90;99.90;;;;;;5094367;28;19908;-76
2022/03/06 07:16:58;;;;;;;;;;;-1.00;99.90;;;;;;5093943;28;19915;-76
2022/03/06 07:19:24;;;;;;;;;;;-0.90;99.90;;;;;;5094816;28;19931;-76
2022/03/06 07:21:49;;;;;;;;;;;-0.80;99.90;;;;;;5094350;28;19908;-76
2022/03/06 07:24:15;;;;;;;;;;;-0.80;99.90;;;;;;5092349;28;20053;-76
2022/03/06 07:26:41;;;;;;;;;;;-0.90;99.90;;;;;;5093827;28;19916;-76
2022/03/06 07:29:06;;;;;;;;;;;-0.90;99.90;;;;;;5092671;28;19908;-76
2022/03/06 07:31:32;;;;;;;;;;;-0.90;99.90;;;;;;5094215;28;20361;-77
2022/03/06 07:33:58;;;;;;;;;;;-0.90;99.90;;;;;;5093617;28;19954;-75
2022/03/06 07:36:23;;;;;;;;;;;-0.80;99.90;;;;;;5094017;28;19908;-77
2022/03/06 07:38:49;;;;;;;;;;;-0.70;99.90;;;;;;5094263;28;19908;-76
2022/03/06 07:41:14;;;;;;;;;;;-0.50;99.90;;;;;;5091358;28;19954;-77
2022/03/06 07:43:40;;;;;;;;;;;-0.40;99.90;;;;;;5093452;28;19909;-75
2022/03/06 07:46:06;;;;;;;;;;;-0.40;99.90;;;;;;5092973;28;20323;-75
2022/03/06 07:48:31;;;;;;;;;;;-0.30;99.90;;;;;;5094610;28;19912;-77
2022/03/06 07:50:57;;;;;;;;;;;-0.40;99.90;;;;;;5093723;28;19908;-74
2022/03/06 07:53:22;;;;;;;;;;;-0.30;99.90;;;;;;5093694;28;19909;-74
2022/03/06 07:55:48;;;;;;;;;;;-0.30;99.90;;;;;;5093710;28;20407;-75
2022/03/06 07:58:13;;;;;;;;;;;-0.30;99.90;;;;;;5092805;28;19966;-75
2022/03/06 08:00:39;;;;;;;;;;;-0.30;99.90;;;;;;5093149;28;20029;-75
2022/03/06 08:03:04;;;;;;;;;;;-0.30;99.90;;;;;;5092612;28;19919;-76
2022/03/06 08:05:31;;;;;;;;;;;-0.30;99.90;;;;;;5093095;28;20320;-75
2022/03/06 08:07:57;;;;;;;;;;;-0.20;99.90;;;;;;5092907;28;19908;-74
2022/03/06 08:10:22;;;;;;;;;;;0.00;99.90;;;;;;5093185;28;19931;-75
2022/03/06 08:12:48;;;;;;;;;;;0.20;99.90;;;;;;5093017;28;19931;-75
2022/03/06 08:15:14;;;;;;;;;;;0.30;99.90;;;;;;5092494;28;20376;-75
2022/03/06 08:17:39;;;;;;;;;;;0.50;99.90;;;;;;5092872;28;19909;-75
2022/03/06 08:20:05;;;;;;;;;;;0.60;99.90;;;;;;5092619;28;19951;-76
2022/03/06 08:22:31;;;;;;;;;;;0.70;99.90;;;;;;5093103;28;19915;-75
2022/03/06 08:24:57;;;;;;;;;;;0.70;99.90;;;;;;5092637;28;20286;-75
2022/03/06 08:27:22;;;;;;;;;;;0.70;99.90;;;;;;5092774;28;19920;-75
2022/03/06 08:29:48;;;;;;;;;;;0.70;99.90;;;;;;5092630;28;20341;-76
2022/03/06 08:32:14;;;;;;;;;;;0.90;99.90;;;;;;5092110;28;19912;-76
2022/03/06 08:34:40;;;;;;;;;;;0.90;99.90;;;;;;5092823;28;19947;-76
2022/03/06 08:37:06;;;;;;;;;;;1.10;99.90;;;;;;5092439;28;19974;-77
2022/03/06 08:39:31;;;;;;;;;;;1.20;99.90;;;;;;5092583;28;20269;-76
2022/03/06 08:41:57;;;;;;;;;;;1.20;99.90;;;;;;5091137;28;19961;-76
2022/03/06 08:44:23;;;;;;;;;;;1.30;99.90;;;;;;5092773;28;19915;-76
2022/03/06 08:46:48;;;;;;;;;;;1.30;99.90;;;;;;5092704;28;20007;-76
2022/03/06 08:49:14;;;;;;;;;;;1.50;99.90;;;;;;5092081;28;19974;-76
2022/03/06 08:51:39;;;;;;;;;;;1.60;99.90;;;;;;5092767;28;19950;-76
2022/03/06 08:54:05;;;;;;;;;;;1.60;99.90;;;;;;5092138;28;19912;-76
2022/03/06 08:56:31;;;;;;;;;;;1.60;99.90;;;;;;5092452;28;20260;-75
2022/03/06 08:58:56;;;;;;;;;;;1.70;99.90;;;;;;5092335;28;19908;-76
2022/03/06 09:01:22;;;;;;;;;;;1.80;99.90;;;;;;5092054;28;19909;-76
2022/03/06 09:03:47;;;;;;;;;;;1.80;99.90;;;;;;5091387;28;19912;-75
2022/03/06 09:06:13;;;;;;;;;;;1.80;99.90;;;;;;5092005;28;19964;-76
2022/03/06 09:08:39;;;;;;;;;;;1.70;99.90;;;;;;5092601;28;19908;-78
2022/03/06 09:11:07;;;;;;;;;;;1.70;99.90;;;;;;5093178;28;19926;-75
2022/03/06 09:13:33;;;;;;;;;;;1.70;99.90;;;;;;5092903;28;19908;-76
2022/03/06 09:15:59;;;;;;;;;;;1.70;99.90;;;;;;5091969;28;19950;-75
2022/03/06 09:18:25;;;;;;;;;;;1.90;99.90;;;;;;5092622;28;19912;-76
2022/03/06 09:20:50;;;;;;;;;;;2.10;99.90;;;;;;5091010;28;20333;-76
2022/03/06 09:23:16;;;;;;;;;;;2.10;99.90;;;;;;5091583;28;19908;-76
2022/03/06 09:25:42;;;;;;;;;;;2.20;99.90;;;;;;5092146;28;19916;-76
2022/03/06 09:28:07;;;;;;;;;;;2.20;99.90;;;;;;5091965;28;19915;-76
2022/03/06 09:30:33;;;;;;;;;;;2.40;99.90;;;;;;5105511;28;19908;-76
2022/03/06 09:32:59;;;;;;;;;;;2.50;99.90;;;;;;5094734;28;19915;-75
2022/03/06 09:35:24;;;;;;;;;;;2.50;99.90;;;;;;5091932;28;19916;-76
2022/03/06 09:37:51;;;;;;;;;;;2.60;99.90;;;;;;5091911;28;19959;-76
2022/03/06 09:40:17;;;;;;;;;;;2.70;99.90;;;;;;5091726;28;20395;-76
2022/03/06 09:42:43;;;;;;;;;;;2.80;99.90;;;;;;5091932;28;19953;-76
2022/03/06 09:45:10;;;;;;;;;;;2.90;99.90;;;;;;5091199;28;19909;-76
2022/03/06 09:47:36;;;;;;;;;;;3.10;99.90;;;;;;5091891;28;19951;-76
2022/03/06 09:50:04;;;;;;;;;;;3.40;99.90;;;;;;5091046;28;19936;-75
2022/03/06 09:52:29;;;;;;;;;;;3.50;99.90;;;;;;5093588;28;19970;-76
2022/03/06 09:54:55;;;;;;;;;;;3.50;99.90;;;;;;5095439;28;19943;-76
2022/03/06 09:57:21;;;;;;;;;;;3.70;99.90;;;;;;5094586;28;19920;-76
2022/03/06 09:59:47;;;;;;;;;;;3.90;99.90;;;;;;5096073;28;19916;-76
2022/03/06 10:02:13;;;;;;;;;;;4.10;99.90;;;;;;5095009;28;19917;-75
2022/03/06 10:04:40;;;;;;;;;;;4.20;99.90;;;;;;5096049;28;19995;-76
2022/03/06 10:07:07;;;;;;;;;;;4.40;99.90;;;;;;5095607;28;20441;-76
2022/03/06 10:09:34;;;;;;;;;;;4.60;99.90;;;;;;5095847;28;19908;-76
2022/03/06 10:12:00;;;;;;;;;;;4.80;99.90;;;;;;5095325;28;19950;-76
2022/03/06 10:14:41;;;;;;;;;;;5.10;99.90;;;;;;5095438;28;19908;-76
2022/03/06 10:17:07;;;;;;;;;;;5.30;99.90;;;;;;5095263;28;19931;-76
2022/03/06 10:19:53;;;;;;;;;;;5.50;99.90;;;;;;5094207;28;20273;-76
2022/03/06 10:22:19;;;;;;;;;;;5.70;99.90;;;;;;5095106;28;19908;-76
2022/03/06 10:24:49;;;;;;;;;;;6.00;99.90;;;;;;5095300;28;19912;-76
2022/03/06 10:27:15;;;;;;;;;;;6.30;99.90;;;;;;5094839;28;19927;-76
2022/03/06 10:29:41;;;;;;;;;;;6.30;99.90;;;;;;5095302;28;19908;-76
2022/03/06 10:32:07;;;;;;;;;;;6.40;99.90;;;;;;5094503;28;19935;-76
2022/03/06 10:34:34;;;;;;;;;;;6.50;99.90;;;;;;5095286;28;19938;-76
2022/03/06 10:37:02;;;;;;;;;;;6.50;99.90;;;;;;5095145;28;19916;-76
2022/03/06 10:39:27;;;;;;;;;;;6.40;99.90;;;;;;5095177;28;20355;-76
2022/03/06 10:41:53;;;;;;;;;;;6.50;99.90;;;;;;5095226;28;19911;-76
2022/03/06 10:44:21;;;;;;;;;;;6.60;99.90;;;;;;5094360;28;19943;-76
2022/03/06 10:47:00;;;;;;;;;;;6.60;99.90;;;;;;5095115;28;19961;-76
2022/03/06 10:49:26;;;;;;;;;;;6.60;99.90;;;;;;5094251;28;19908;-76
2022/03/06 10:51:51;;;;;;;;;;;6.70;99.90;;;;;;5095038;28;19914;-77
2022/03/06 10:54:18;;;;;;;;;;;6.70;99.90;;;;;;5094003;28;19994;-76
2022/03/06 10:56:44;;;;;;;;;;;6.70;99.90;;;;;;5094373;28;19994;-75
2022/03/06 10:59:10;;;;;;;;;;;6.70;99.90;;;;;;5094394;28;19934;-76
2022/03/06 11:01:37;;;;;;;;;;;6.70;99.90;;;;;;5094815;28;19912;-77
2022/03/06 11:04:04;;;;;;;;;;;6.80;99.90;;;;;;5094109;28;19942;-76
2022/03/06 11:06:37;;;;;;;;;;;6.80;99.90;;;;;;5094691;28;19916;-76
2022/03/06 11:09:02;;;;;;;;;;;6.80;99.90;;;;;;5094519;28;20361;-76
2022/03/06 11:11:28;;;;;;;;;;;6.90;99.90;;;;;;5094216;28;19915;-76
2022/03/06 11:13:55;;;;;;;;;;;6.90;99.90;;;;;;5094997;28;20406;-76
2022/03/06 11:16:21;;;;;;;;;;;7.00;99.90;;;;;;5094003;28;19959;-76
2022/03/06 11:18:47;;;;;;;;;;;7.00;99.90;;;;;;5094421;28;19959;-76
2022/03/06 11:21:13;;;;;;;;;;;6.90;99.90;;;;;;5093667;28;20349;-76
2022/03/06 11:23:43;;;;;;;;;;;6.90;99.90;;;;;;5094463;28;20426;-76
2022/03/06 11:26:09;;;;;;;;;;;6.90;99.90;;;;;;5093466;28;19939;-76
2022/03/06 11:28:44;;;;;;;;;;;6.80;99.90;;;;;;5093198;28;20360;-76
2022/03/06 11:31:12;;;;;;;;;;;6.90;99.90;;;;;;5093777;28;19912;-76
2022/03/06 11:33:41;;;;;;;;;;;7.00;99.90;;;;;;5094262;28;19908;-76
2022/03/06 11:36:20;;;;;;;;;;;6.90;99.90;;;;;;5093803;28;19908;-75
2022/03/06 11:38:48;;;;;;;;;;;6.90;99.90;;;;;;5094012;28;19912;-76
2022/03/06 11:41:14;;;;;;;;;;;6.80;99.90;;;;;;5093369;28;19915;-76
2022/03/06 11:43:44;;;;;;;;;;;6.80;99.90;;;;;;5093626;28;19908;-76
2022/03/06 11:46:12;;;;;;;;;;;6.80;99.90;;;;;;5093633;28;20237;-76
2022/03/06 11:48:37;;;;;;;;;;;6.90;99.90;;;;;;5094001;28;19974;-76
2022/03/06 11:51:15;;;;;;;;;;;6.90;99.90;;;;;;5093764;28;19935;-76
2022/03/06 11:54:02;;;;;;;;;;;6.90;99.90;;;;;;5093704;28;19915;-76
2022/03/06 11:56:31;;;;;;;;;;;6.90;99.90;;;;;;5092784;28;20441;-76
2022/03/06 11:58:57;;;;;;;;;;;6.90;99.90;;;;;;5093685;28;20297;-76
2022/03/06 12:01:33;;;;;;;;;;;6.90;99.90;;;;;;5093075;28;20369;-76
2022/03/06 12:04:18;;;;;;;;;;;7.00;99.90;;;;;;5093967;28;20284;-76
2022/03/06 12:06:48;;;;;;;;;;;7.00;99.90;;;;;;5093566;28;20007;-76
2022/03/06 12:09:18;;;;;;;;;;;7.10;99.90;;;;;;5092966;28;19999;-76
2022/03/06 12:11:44;;;;;;;;;;;7.10;99.90;;;;;;5093376;28;19908;-76
2022/03/06 12:14:14;;;;;;;;;;;7.10;99.90;;;;;;5092154;28;19908;-76
2022/03/06 12:16:58;;;;;;;;;;;7.10;99.90;;;;;;5093740;28;19908;-76
2022/03/06 12:19:23;;;;;;;;;;;7.10;99.90;;;;;;5091507;28;20245;-76
2022/03/06 12:21:49;;;;;;;;;;;7.10;99.90;;;;;;5092989;28;19908;-76
2022/03/06 12:24:27;;;;;;;;;;;7.10;99.90;;;;;;5091471;28;20335;-76
2022/03/06 12:26:53;;;;;;;;;;;7.20;99.90;;;;;;5093294;28;19916;-76
2022/03/06 12:29:37;;;;;;;;;;;7.10;99.90;;;;;;5092203;28;19961;-75
2022/03/06 12:32:21;;;;;;;;;;;7.10;99.90;;;;;;5093165;28;19954;-76
2022/03/06 12:34:46;;;;;;;;;;;7.00;99.90;;;;;;5092778;28;19908;-75
2022/03/06 12:37:12;;;;;;;;;;;7.00;99.90;;;;;;5092477;28;19908;-75
2022/03/06 12:39:38;;;;;;;;;;;7.10;99.90;;;;;;5092663;28;19948;-76
2022/03/06 12:42:03;;;;;;;;;;;7.10;99.90;;;;;;5092900;28;19912;-76
2022/03/06 12:44:30;;;;;;;;;;;7.10;99.90;;;;;;5092324;28;20125;-75
2022/03/06 12:46:56;;;;;;;;;;;7.10;99.90;;;;;;5092703;28;19920;-76
2022/03/06 12:49:23;;;;;;;;;;;7.20;99.90;;;;;;5092423;28;19969;-75
2022/03/06 12:51:50;;;;;;;;;;;7.20;99.90;;;;;;5092784;28;20018;-75
2022/03/06 12:54:20;;;;;;;;;;;7.20;99.90;;;;;;5092016;28;19912;-75
2022/03/06 12:56:46;;;;;;;;;;;7.20;99.90;;;;;;5092708;28;19954;-75
2022/03/06 12:59:16;;;;;;;;;;;7.20;99.90;;;;;;5092868;28;19908;-76
2022/03/06 13:01:43;;;;;;;;;;;7.30;99.90;;;;;;5093121;28;19998;-75
2022/03/06 13:04:08;;;;;;;;;;;7.30;99.90;;;;;;5092800;28;19909;-78
2022/03/06 13:06:34;;;;;;;;;;;7.30;99.90;;;;;;5090638;28;20064;-75
2022/03/06 13:09:01;;;;;;;;;;;7.20;99.90;;;;;;5092752;28;19908;-75
2022/03/06 13:11:27;;;;;;;;;;;7.20;99.90;;;;;;5092202;28;19912;-77
2022/03/06 13:14:03;;;;;;;;;;;7.20;99.90;;;;;;5092814;28;20246;-77
2022/03/06 13:16:28;;;;;;;;;;;7.20;99.90;;;;;;5091856;28;20293;-77
2022/03/06 13:18:57;;;;;;;;;;;7.20;99.90;;;;;;5092525;28;19908;-77
2022/03/06 13:21:24;;;;;;;;;;;7.20;99.90;;;;;;5091781;28;19908;-77
2022/03/06 13:24:03;;;;;;;;;;;7.40;99.90;;;;;;5091922;28;19948;-76
2022/03/06 13:26:29;;;;;;;;;;;7.40;99.90;;;;;;5091424;28;20391;-75
2022/03/06 13:28:55;;;;;;;;;;;7.40;99.90;;;;;;5095943;28;19912;-77
2022/03/06 13:31:21;;;;;;;;;;;7.40;99.90;;;;;;5095285;28;19965;-75
2022/03/06 13:34:06;;;;;;;;;;;7.40;99.90;;;;;;5095749;28;19908;-77
2022/03/06 13:36:33;;;;;;;;;;;7.40;99.90;;;;;;5093867;28;19916;-77
2022/03/06 13:39:09;;;;;;;;;;;7.40;99.90;;;;;;5095293;28;19961;-75
2022/03/06 13:41:36;;;;;;;;;;;7.40;99.90;;;;;;5089997;28;19923;-74
2022/03/06 13:44:05;;;;;;;;;;;7.40;99.90;;;;;;5095612;28;19908;-75
2022/03/06 13:46:38;;;;;;;;;;;7.40;99.90;;;;;;5094472;28;20345;-75
2022/03/06 13:49:18;;;;;;;;;;;7.50;99.90;;;;;;5095537;28;19916;-77
2022/03/06 13:51:44;;;;;;;;;;;7.60;99.90;;;;;;5095477;28;19912;-77
2022/03/06 13:54:10;;;;;;;;;;;7.50;99.90;;;;;;5095168;28;20351;-78
2022/03/06 13:56:41;;;;;;;;;;;7.60;99.90;;;;;;5094565;28;19959;-77
2022/03/06 13:59:08;;;;;;;;;;;7.40;99.90;;;;;;5095101;28;20342;-77
2022/03/06 14:01:34;;;;;;;;;;;7.50;99.90;;;;;;5094681;28;19908;-78
2022/03/06 14:04:01;;;;;;;;;;;7.60;99.90;;;;;;5095548;28;20379;-77
2022/03/06 14:06:40;;;;;;;;;;;7.60;99.90;;;;;;5094651;28;20405;-77
2022/03/06 14:09:19;;;;;;;;;;;7.70;99.90;;;;;;5095164;28;20018;-77
2022/03/06 14:11:45;;;;;;;;;;;7.60;99.90;;;;;;5094582;28;20461;-77
2022/03/06 14:14:10;;;;;;;;;;;7.70;99.90;;;;;;5094133;28;19909;-77
2022/03/06 14:16:36;;;;;;;;;;;7.70;99.90;;;;;;5095259;28;19937;-77
2022/03/06 14:19:03;;;;;;;;;;;7.70;99.90;;;;;;5095031;28;20242;-77
2022/03/06 14:21:38;;;;;;;;;;;7.60;99.90;;;;;;5094879;28;19908;-77
2022/03/06 14:24:13;;;;;;;;;;;7.60;99.90;;;;;;5095515;28;19915;-77